createdAt,value
2022-09-01T00:00:43.266Z,0
2022-09-01T00:01:43.861Z,0
2022-09-01T00:02:44.491Z,0
2022-09-01T00:03:45.052Z,0
2022-09-01T00:04:45.686Z,0
2022-09-01T00:05:46.291Z,0
2022-09-01T00:06:46.872Z,0
2022-09-01T00:07:47.473Z,0
2022-09-01T00:08:48.079Z,0
2022-09-01T00:09:48.667Z,0
2022-09-01T00:10:49.263Z,0
2022-09-01T00:11:50.659Z,0
2022-09-01T00:12:51.387Z,0
2022-09-01T00:13:51.984Z,0
2022-09-01T00:14:52.579Z,0
2022-09-01T00:15:53.261Z,0
2022-09-01T00:16:53.800Z,0
2022-09-01T00:17:54.392Z,0
2022-09-01T00:18:54.990Z,0
2022-09-01T00:19:55.605Z,0
2022-09-01T00:20:56.199Z,0
2022-09-01T00:21:56.792Z,0
2022-09-01T00:22:57.388Z,0
2022-09-01T00:23:57.983Z,0
2022-09-01T00:24:58.579Z,0
2022-09-01T00:25:59.173Z,0
2022-09-01T00:26:59.768Z,0
2022-09-01T00:28:00.370Z,0
2022-09-01T00:29:00.960Z,0
2022-09-01T00:30:01.555Z,0
2022-09-01T00:31:02.182Z,0
2022-09-01T00:32:02.765Z,0
2022-09-01T00:33:03.537Z,0
2022-09-01T00:34:04.133Z,0
2022-09-01T00:35:04.730Z,0
2022-09-01T00:36:05.320Z,0
2022-09-01T00:37:05.915Z,0
2022-09-01T00:38:06.510Z,0
2022-09-01T00:39:07.131Z,0
2022-09-01T00:40:07.777Z,0
2022-09-01T00:41:08.375Z,0
2022-09-01T00:42:08.968Z,0
2022-09-01T00:43:09.564Z,0
2022-09-01T00:44:10.157Z,0
2022-09-01T00:45:10.754Z,0
2022-09-01T00:46:11.371Z,0
2022-09-01T00:47:11.942Z,0
2022-09-01T00:48:13.262Z,0
2022-09-01T00:49:14.351Z,0
2022-09-01T00:50:14.946Z,0
2022-09-01T00:51:15.541Z,0
2022-09-01T00:52:16.135Z,0
2022-09-01T00:53:16.732Z,0
2022-09-01T00:54:17.326Z,0
2022-09-01T00:55:17.924Z,0
2022-09-01T00:56:18.535Z,0
2022-09-01T00:57:19.130Z,0
2022-09-01T00:58:20.254Z,0
2022-09-01T00:59:20.836Z,0
2022-09-01T01:00:21.428Z,0
2022-09-01T01:01:22.080Z,0
2022-09-01T01:02:22.705Z,0
2022-09-01T01:03:23.263Z,0
2022-09-01T01:04:23.859Z,0
2022-09-01T01:05:24.591Z,0
2022-09-01T01:06:25.187Z,0
2022-09-01T01:07:26.775Z,0
2022-09-01T01:08:27.369Z,0
2022-09-01T01:09:27.965Z,0
2022-09-01T01:10:28.558Z,0
2022-09-01T01:11:29.152Z,0
2022-09-01T01:12:29.745Z,0
2022-09-01T01:13:30.343Z,0
2022-09-01T01:14:30.938Z,0
2022-09-01T01:15:31.537Z,0
2022-09-01T01:16:32.154Z,0
2022-09-01T01:17:32.722Z,0
2022-09-01T01:18:33.318Z,0
2022-09-01T01:19:38.779Z,0
2022-09-01T01:20:35.518Z,0
2022-09-01T01:21:36.112Z,0
2022-09-01T01:22:36.708Z,0
2022-09-01T01:23:37.312Z,0
2022-09-01T01:24:37.898Z,0
2022-09-01T01:25:38.516Z,0
2022-09-01T01:26:39.110Z,0
2022-09-01T01:27:42.930Z,0
2022-09-01T01:28:41.294Z,0
2022-09-01T01:29:41.887Z,0
2022-09-01T01:30:42.535Z,0
2022-09-01T01:31:43.080Z,0
2022-09-01T01:32:43.691Z,0
2022-09-01T01:33:44.270Z,0
2022-09-01T01:34:44.863Z,0
2022-09-01T01:35:45.460Z,0
2022-09-01T01:36:46.054Z,0
2022-09-01T01:37:46.676Z,0
2022-09-01T01:38:47.248Z,0
2022-09-01T01:39:47.841Z,0
2022-09-01T01:40:48.465Z,0
2022-09-01T01:41:49.070Z,0
2022-09-01T01:42:49.629Z,0
2022-09-01T01:43:50.222Z,0
2022-09-01T01:44:50.818Z,0
2022-09-01T01:45:51.448Z,0
2022-09-01T01:46:52.014Z,0
2022-09-01T01:47:52.608Z,0
2022-09-01T01:48:53.203Z,0
2022-09-01T01:49:53.800Z,0
2022-09-01T01:50:54.393Z,0
2022-09-01T01:51:55.076Z,0
2022-09-01T01:52:58.314Z,0
2022-09-01T01:53:57.252Z,0
2022-09-01T01:55:00.154Z,0
2022-09-01T01:55:59.432Z,0
2022-09-01T01:57:00.032Z,0
2022-09-01T01:58:00.630Z,0
2022-09-01T01:59:01.218Z,0
2022-09-01T02:00:01.832Z,0
2022-09-01T02:01:02.503Z,0
2022-09-01T02:02:03.130Z,0
2022-09-01T02:03:03.679Z,0
2022-09-01T02:04:04.283Z,0
2022-09-01T02:05:04.864Z,0
2022-09-01T02:06:05.462Z,0
2022-09-01T02:07:06.054Z,0
2022-09-01T02:08:06.650Z,0
2022-09-01T02:09:07.263Z,0
2022-09-01T02:10:07.860Z,0
2022-09-01T02:11:08.460Z,0
2022-09-01T02:12:09.046Z,0
2022-09-01T02:13:09.641Z,0
2022-09-01T02:14:10.236Z,0
2022-09-01T02:15:10.830Z,0
2022-09-01T02:16:11.426Z,0
2022-09-01T02:17:12.098Z,0
2022-09-01T02:18:12.652Z,0
2022-09-01T02:19:13.246Z,0
2022-09-01T02:20:14.834Z,0
2022-09-01T02:21:18.460Z,0
2022-09-01T02:22:17.018Z,0
2022-09-01T02:23:17.612Z,0
2022-09-01T02:24:18.207Z,0
2022-09-01T02:25:18.801Z,0
2022-09-01T02:26:19.412Z,0
2022-09-01T02:27:19.990Z,0
2022-09-01T02:28:20.747Z,0
2022-09-01T02:29:21.334Z,0
2022-09-01T02:30:22.086Z,0
2022-09-01T02:31:22.651Z,0
2022-09-01T02:32:23.246Z,0
2022-09-01T02:33:23.839Z,0
2022-09-01T02:34:24.440Z,0
2022-09-01T02:35:25.028Z,0
2022-09-01T02:36:25.623Z,0
2022-09-01T02:37:26.218Z,0
2022-09-01T02:38:26.813Z,0
2022-09-01T02:39:27.407Z,0
2022-09-01T02:40:28.026Z,0
2022-09-01T02:41:28.596Z,0
2022-09-01T02:42:29.194Z,0
2022-09-01T02:43:29.787Z,0
2022-09-01T02:44:30.385Z,0
2022-09-01T02:45:31.003Z,0
2022-09-01T02:46:31.588Z,0
2022-09-01T02:47:32.169Z,0
2022-09-01T02:48:32.764Z,0
2022-09-01T02:49:33.711Z,0
2022-09-01T02:50:34.306Z,0
2022-09-01T02:51:34.899Z,0
2022-09-01T02:52:35.497Z,0
2022-09-01T02:53:36.091Z,0
2022-09-01T02:54:36.687Z,0
2022-09-01T02:55:37.282Z,0
2022-09-01T02:56:37.876Z,0
2022-09-01T02:57:38.473Z,0
2022-09-01T02:58:39.067Z,0
2022-09-01T02:59:43.687Z,0
2022-09-01T03:00:42.243Z,0
2022-09-01T03:01:42.835Z,0
2022-09-01T03:02:43.430Z,0
2022-09-01T03:03:44.026Z,0
2022-09-01T03:04:44.703Z,0
2022-09-01T03:05:45.268Z,0
2022-09-01T03:06:45.865Z,0
2022-09-01T03:07:46.460Z,0
2022-09-01T03:08:47.056Z,0
2022-09-01T03:09:47.649Z,0
2022-09-01T03:10:48.246Z,0
2022-09-01T03:11:48.844Z,0
2022-09-01T03:12:49.437Z,0
2022-09-01T03:13:50.031Z,0
2022-09-01T03:14:50.626Z,0
2022-09-01T03:15:51.225Z,0
2022-09-01T03:16:51.954Z,0
2022-09-01T03:17:52.556Z,0
2022-09-01T03:18:53.155Z,0
2022-09-01T03:19:53.748Z,0
2022-09-01T03:20:54.343Z,0
2022-09-01T03:21:54.937Z,0
2022-09-01T03:22:55.534Z,0
2022-09-01T03:23:56.127Z,0
2022-09-01T03:24:56.723Z,0
2022-09-01T03:25:57.317Z,0
2022-09-01T03:26:57.912Z,0
2022-09-01T03:27:58.507Z,0
2022-09-01T03:28:59.102Z,0
2022-09-01T03:29:59.695Z,0
2022-09-01T03:31:00.294Z,0
2022-09-01T03:32:00.939Z,0
2022-09-01T03:33:01.498Z,0
2022-09-01T03:34:02.090Z,0
2022-09-01T03:35:02.686Z,0
2022-09-01T03:36:03.280Z,0
2022-09-01T03:37:03.877Z,0
2022-09-01T03:38:04.469Z,0
2022-09-01T03:39:05.063Z,0
2022-09-01T03:40:05.687Z,0
2022-09-01T03:41:06.253Z,0
2022-09-01T03:42:06.846Z,0
2022-09-01T03:43:07.443Z,0
2022-09-01T03:44:08.038Z,0
2022-09-01T03:45:08.633Z,0
2022-09-01T03:46:09.336Z,0
2022-09-01T03:47:09.902Z,0
2022-09-01T03:48:10.496Z,0
2022-09-01T03:49:11.096Z,0
2022-09-01T03:50:11.686Z,0
2022-09-01T03:51:12.284Z,0
2022-09-01T03:52:12.883Z,0
2022-09-01T03:53:13.493Z,0
2022-09-01T03:54:14.094Z,0
2022-09-01T03:55:14.686Z,0
2022-09-01T03:56:15.310Z,0
2022-09-01T03:57:15.872Z,0
2022-09-01T03:58:17.363Z,0
2022-09-01T03:59:18.950Z,4
2022-09-01T04:00:19.547Z,0
2022-09-01T04:01:20.421Z,4
2022-09-01T04:02:21.045Z,4
2022-09-01T04:03:21.593Z,4
2022-09-01T04:04:22.203Z,4
2022-09-01T04:05:22.796Z,4
2022-09-01T04:06:23.411Z,8
2022-09-01T04:07:24.032Z,12
2022-09-01T04:08:24.620Z,8
2022-09-01T04:09:25.219Z,12
2022-09-01T04:10:25.816Z,12
2022-09-01T04:11:26.411Z,16
2022-09-01T04:12:27.007Z,20
2022-09-01T04:13:27.603Z,24
2022-09-01T04:14:29.921Z,32
2022-09-01T04:15:29.789Z,36
2022-09-01T04:16:30.447Z,44
2022-09-01T04:17:30.993Z,52
2022-09-01T04:18:31.587Z,60
2022-09-01T04:19:32.183Z,72
2022-09-01T04:20:32.780Z,84
2022-09-01T04:21:33.373Z,96
2022-09-01T04:22:33.972Z,112
2022-09-01T04:23:34.587Z,128
2022-09-01T04:24:35.185Z,148
2022-09-01T04:25:35.780Z,168
2022-09-01T04:26:36.396Z,192
2022-09-01T04:27:36.995Z,220
2022-09-01T04:28:37.592Z,252
2022-09-01T04:29:38.556Z,280
2022-09-01T04:30:39.106Z,312
2022-09-01T04:31:39.729Z,352
2022-09-01T04:32:40.299Z,388
2022-09-01T04:33:40.897Z,432
2022-09-01T04:34:41.493Z,476
2022-09-01T04:35:42.092Z,524
2022-09-01T04:36:42.692Z,572
2022-09-01T04:37:43.288Z,628
2022-09-01T04:38:43.887Z,688
2022-09-01T04:39:44.486Z,748
2022-09-01T04:40:45.122Z,804
2022-09-01T04:41:45.681Z,872
2022-09-01T04:42:46.299Z,936
2022-09-01T04:43:46.896Z,1004
2022-09-01T04:44:47.516Z,1076
2022-09-01T04:45:48.160Z,1148
2022-09-01T04:46:48.714Z,1220
2022-09-01T04:47:49.313Z,1292
2022-09-01T04:48:49.930Z,1372
2022-09-01T04:49:50.527Z,1444
2022-09-01T04:50:51.128Z,1524
2022-09-01T04:51:53.871Z,1600
2022-09-01T04:52:53.319Z,1680
2022-09-01T04:53:53.918Z,1760
2022-09-01T04:54:54.518Z,1840
2022-09-01T04:55:55.120Z,1916
2022-09-01T04:56:55.717Z,1996
2022-09-01T04:57:56.315Z,2080
2022-09-01T04:58:56.916Z,2160
2022-09-01T04:59:57.513Z,2240
2022-09-01T05:00:58.188Z,2320
2022-09-01T05:01:58.810Z,2396
2022-09-01T05:02:59.364Z,2476
2022-09-01T05:03:59.962Z,2548
2022-09-01T05:05:00.561Z,2628
2022-09-01T05:06:01.160Z,2700
2022-09-01T05:07:01.836Z,2772
2022-09-01T05:08:02.437Z,2848
2022-09-01T05:09:03.037Z,2916
2022-09-01T05:10:03.638Z,2980
2022-09-01T05:11:04.238Z,3052
2022-09-01T05:12:04.839Z,3120
2022-09-01T05:13:05.439Z,3184
2022-09-01T05:14:06.039Z,3252
2022-09-01T05:15:06.642Z,3316
2022-09-01T05:16:07.281Z,3376
2022-09-01T05:17:07.876Z,3440
2022-09-01T05:18:08.473Z,3504
2022-09-01T05:19:09.075Z,3564
2022-09-01T05:20:09.675Z,3624
2022-09-01T05:21:10.276Z,3684
2022-09-01T05:22:10.878Z,3744
2022-09-01T05:23:11.497Z,3800
2022-09-01T05:24:12.097Z,3852
2022-09-01T05:25:12.700Z,3908
2022-09-01T05:26:13.300Z,3964
2022-09-01T05:27:13.903Z,4016
2022-09-01T05:28:14.506Z,4068
2022-09-01T05:29:15.103Z,4120
2022-09-01T05:30:15.704Z,4168
2022-09-01T05:31:16.355Z,4216
2022-09-01T05:32:16.908Z,4260
2022-09-01T05:33:21.221Z,4308
2022-09-01T05:34:19.104Z,4356
2022-09-01T05:35:19.703Z,4400
2022-09-01T05:36:20.301Z,4444
2022-09-01T05:37:20.902Z,4484
2022-09-01T05:38:21.641Z,4532
2022-09-01T05:39:22.238Z,4568
2022-09-01T05:40:22.852Z,4612
2022-09-01T05:41:23.435Z,4648
2022-09-01T05:42:24.034Z,4684
2022-09-01T05:43:24.634Z,4720
2022-09-01T05:44:25.230Z,4760
2022-09-01T05:45:25.831Z,4800
2022-09-01T05:46:26.476Z,4836
2022-09-01T05:47:27.035Z,4872
2022-09-01T05:48:27.634Z,4912
2022-09-01T05:49:28.253Z,4948
2022-09-01T05:50:28.851Z,4984
2022-09-01T05:51:46.385Z,5020
2022-09-01T05:52:31.043Z,5056
2022-09-01T05:53:31.644Z,5104
2022-09-01T05:54:33.050Z,5140
2022-09-01T05:55:33.671Z,5176
2022-09-01T05:56:34.270Z,5212
2022-09-01T05:57:35.309Z,5252
2022-09-01T05:59:37.082Z,5316
2022-09-01T06:00:37.682Z,5352
2022-09-01T06:01:38.326Z,5384
2022-09-01T06:02:39.077Z,5444
2022-09-01T06:03:39.717Z,5556
2022-09-01T06:04:40.334Z,5676
2022-09-01T06:05:40.935Z,5764
2022-09-01T06:07:01.773Z,5844
2022-09-01T06:07:43.128Z,5920
2022-09-01T06:08:46.822Z,5992
2022-09-01T06:09:45.343Z,6060
2022-09-01T06:10:45.943Z,6132
2022-09-01T06:11:46.542Z,6200
2022-09-01T06:12:48.750Z,6280
2022-09-01T06:13:51.404Z,6344
2022-09-01T06:14:50.327Z,6428
2022-09-01T06:15:50.951Z,6556
2022-09-01T06:16:51.525Z,6612
2022-09-01T06:17:52.125Z,6692
2022-09-01T06:18:52.722Z,6768
2022-09-01T06:19:54.316Z,6952
2022-09-01T06:20:54.920Z,6904
2022-09-01T06:21:55.516Z,7012
2022-09-01T06:22:56.118Z,7148
2022-09-01T06:23:56.739Z,7324
2022-09-01T06:25:01.807Z,7448
2022-09-01T06:25:58.928Z,7508
2022-09-01T06:26:59.527Z,7604
2022-09-01T06:28:00.134Z,7764
2022-09-01T06:29:00.725Z,7904
2022-09-01T06:30:01.325Z,7888
2022-09-01T06:31:01.975Z,7984
2022-09-01T06:32:02.547Z,8168
2022-09-01T06:33:03.141Z,8308
2022-09-01T06:34:03.741Z,8424
2022-09-01T06:35:05.272Z,8560
2022-09-01T06:36:05.867Z,8700
2022-09-01T06:37:06.461Z,8776
2022-09-01T06:38:07.062Z,9044
2022-09-01T06:39:07.679Z,9296
2022-09-01T06:41:21.630Z,9352
2022-09-01T06:42:22.232Z,9456
2022-09-01T06:43:23.165Z,9628
2022-09-01T06:44:23.493Z,9844
2022-09-01T06:45:24.061Z,10172
2022-09-01T06:46:24.695Z,10348
2022-09-01T06:47:25.264Z,10412
2022-09-01T06:48:25.892Z,10540
2022-09-01T06:49:26.492Z,10964
2022-09-01T06:51:28.699Z,11168
2022-09-01T06:53:31.941Z,11260
2022-09-01T06:53:32.725Z,11996
2022-09-01T06:54:32.366Z,12856
2022-09-01T06:55:32.966Z,12732
2022-09-01T06:56:33.784Z,12324
2022-09-01T06:58:36.976Z,12624
2022-09-01T06:59:37.577Z,12908
2022-09-01T07:00:38.193Z,13256
2022-09-01T07:01:39.808Z,13600
2022-09-01T07:02:40.447Z,13908
2022-09-01T07:03:41.135Z,14148
2022-09-01T07:04:41.790Z,14120
2022-09-01T07:07:00.086Z,14832
2022-09-01T07:09:53.342Z,15552
2022-09-01T07:11:22.125Z,16036
2022-09-01T07:12:08.858Z,16952
2022-09-01T07:13:08.993Z,17472
2022-09-01T07:18:01.519Z,20000
2022-09-01T07:19:02.120Z,19808
2022-09-01T07:21:09.382Z,19872
2022-09-01T07:22:07.283Z,19776
2022-09-01T07:23:07.355Z,19520
2022-09-01T07:24:10.534Z,20832
2022-09-01T07:25:12.154Z,23040
2022-09-01T07:26:10.990Z,22208
2022-09-01T07:27:11.593Z,20448
2022-09-01T07:28:15.849Z,20128
2022-09-01T07:29:13.792Z,18816
2022-09-01T07:30:15.198Z,19808
2022-09-01T07:35:22.183Z,25824
2022-09-01T07:36:26.854Z,29408
2022-09-01T07:43:33.996Z,28096
2022-09-01T07:44:34.552Z,30720
2022-09-01T07:45:35.155Z,33856
2022-09-01T07:46:37.398Z,35328
2022-09-01T07:47:53.335Z,35136
2022-09-01T07:50:11.375Z,34816
2022-09-01T07:51:35.290Z,33984
2022-09-01T07:51:43.651Z,37376
2022-09-01T07:52:44.213Z,43424
2022-09-01T07:53:44.816Z,40672
2022-09-01T07:54:45.419Z,30720
2022-09-01T07:55:46.023Z,30656
2022-09-01T07:56:46.644Z,38656
2022-09-01T07:57:47.267Z,38368
2022-09-01T07:58:47.868Z,31520
2022-09-01T07:59:48.472Z,30528
2022-09-01T08:00:49.072Z,36192
2022-09-01T08:01:49.713Z,38912
2022-09-01T08:02:52.044Z,37280
2022-09-01T08:03:51.887Z,36448
2022-09-01T08:04:52.483Z,40032
2022-09-01T08:05:53.087Z,44544
2022-09-01T08:06:53.685Z,42272
2022-09-01T08:07:54.289Z,33472
2022-09-01T08:08:56.972Z,28832
2022-09-01T08:10:01.463Z,36064
2022-09-01T08:11:05.426Z,46432
2022-09-01T08:12:02.331Z,48288
2022-09-01T08:13:00.290Z,45152
2022-09-01T08:14:00.895Z,48704
2022-09-01T08:16:07.500Z,54976
2022-09-01T08:17:50.508Z,48864
2022-09-01T08:18:06.333Z,47680
2022-09-01T08:19:16.410Z,52032
2022-09-01T08:20:08.509Z,55072
2022-09-01T08:21:10.058Z,53472
2022-09-01T08:22:10.662Z,50560
2022-09-01T08:23:11.261Z,47936
2022-09-01T08:24:11.862Z,45312
2022-09-01T08:25:12.466Z,44320
2022-09-01T08:26:13.071Z,43648
2022-09-01T08:27:13.673Z,45088
2022-09-01T08:28:14.516Z,46176
2022-09-01T08:29:15.116Z,42080
2022-09-01T08:30:15.722Z,35552
2022-09-01T08:31:16.387Z,37664
2022-09-01T08:32:16.958Z,50976
2022-09-01T08:33:17.560Z,65888
2022-09-01T08:34:18.166Z,72000
2022-09-01T08:35:19.115Z,68480
2022-09-01T08:36:23.678Z,60384
2022-09-01T08:37:21.312Z,57216
2022-09-01T08:38:22.025Z,64000
2022-09-01T08:39:22.626Z,69152
2022-09-01T08:40:23.298Z,64320
2022-09-01T08:41:28.667Z,57504
2022-09-01T08:42:25.448Z,57024
2022-09-01T08:43:27.044Z,66688
2022-09-01T08:44:27.647Z,74432
2022-09-01T08:45:28.246Z,72992
2022-09-01T08:46:28.931Z,64544
2022-09-01T08:47:39.492Z,61216
2022-09-01T08:49:23.781Z,63744
2022-09-01T08:49:42.761Z,66720
2022-09-01T08:50:34.899Z,64320
2022-09-01T08:51:35.478Z,59168
2022-09-01T08:52:36.081Z,60384
2022-09-01T08:53:36.682Z,72960
2022-09-01T08:54:37.434Z,87328
2022-09-01T08:55:39.325Z,89280
2022-09-01T08:56:39.938Z,77216
2022-09-01T08:57:40.540Z,67168
2022-09-01T08:58:41.143Z,70624
2022-09-01T08:59:41.743Z,83488
2022-09-01T09:00:42.346Z,92704
2022-09-01T09:01:42.983Z,89216
2022-09-01T09:02:43.599Z,75168
2022-09-01T09:03:44.174Z,66048
2022-09-01T09:04:44.779Z,69440
2022-09-01T09:05:45.380Z,80288
2022-09-01T09:06:45.983Z,85984
2022-09-01T09:07:46.585Z,76416
2022-09-01T09:08:47.188Z,64960
2022-09-01T09:09:53.726Z,56480
2022-09-01T09:10:49.406Z,50880
2022-09-01T09:11:50.025Z,54784
2022-09-01T09:12:50.658Z,62880
2022-09-01T09:13:51.244Z,69504
2022-09-01T09:14:51.848Z,73024
2022-09-01T09:15:52.647Z,67360
2022-09-01T09:16:53.674Z,60064
2022-09-01T09:17:59.564Z,57920
2022-09-01T09:18:56.601Z,59264
2022-09-01T09:19:57.280Z,65888
2022-09-01T09:20:57.882Z,72800
2022-09-01T09:21:58.493Z,73440
2022-09-01T09:22:59.841Z,72128
2022-09-01T09:24:00.420Z,71488
2022-09-01T09:25:01.024Z,73280
2022-09-01T09:26:01.628Z,78368
2022-09-01T09:27:02.256Z,83840
2022-09-01T09:28:02.849Z,87200
2022-09-01T09:29:03.452Z,85888
2022-09-01T09:30:08.318Z,78720
2022-09-01T09:31:05.717Z,68960
2022-09-01T09:32:06.476Z,65760
2022-09-01T09:33:44.353Z,71264
2022-09-01T09:34:08.506Z,78720
2022-09-01T09:35:09.109Z,86400
2022-09-01T09:36:09.734Z,85792
2022-09-01T09:37:10.335Z,80640
2022-09-01T09:38:10.936Z,74016
2022-09-01T09:39:11.539Z,73600
2022-09-01T09:40:12.140Z,75456
2022-09-01T09:41:17.859Z,80256
2022-09-01T09:42:14.337Z,84992
2022-09-01T09:43:15.775Z,80864
2022-09-01T09:44:16.373Z,68608
2022-09-01T09:45:16.976Z,63392
2022-09-01T09:46:25.466Z,71904
2022-09-01T09:47:42.349Z,88224
2022-09-01T09:48:20.771Z,101408
2022-09-01T09:49:34.266Z,94848
2022-09-01T09:50:22.969Z,73888
2022-09-01T09:51:23.574Z,63392
2022-09-01T09:52:24.174Z,69056
2022-09-01T09:53:24.777Z,78208
2022-09-01T09:54:25.557Z,85792
2022-09-01T09:55:26.830Z,80704
2022-09-01T09:56:27.430Z,70368
2022-09-01T09:57:29.027Z,72032
2022-09-01T09:58:29.630Z,85056
2022-09-01T09:59:54.063Z,95648
2022-09-01T10:00:31.827Z,92640
2022-09-01T10:01:32.562Z,77888
2022-09-01T10:02:33.267Z,60512
2022-09-01T10:03:33.873Z,58496
2022-09-01T10:04:35.434Z,78880
2022-09-01T10:05:36.461Z,107136
2022-09-01T10:06:37.054Z,125376
2022-09-01T10:07:37.675Z,118464
2022-09-01T10:08:38.262Z,94016
2022-09-01T10:09:38.866Z,80800
2022-09-01T10:10:39.479Z,91040
2022-09-01T10:11:41.649Z,117888
2022-09-01T10:12:41.672Z,138400
2022-09-01T10:13:42.275Z,142144
2022-09-01T10:14:52.217Z,122592
2022-09-01T10:15:44.475Z,96512
2022-09-01T10:16:46.061Z,90080
2022-09-01T10:17:47.131Z,100288
2022-09-01T10:18:47.791Z,113568
2022-09-01T10:19:48.401Z,118368
2022-09-01T10:20:48.997Z,119008
2022-09-01T10:21:49.601Z,116960
2022-09-01T10:22:50.732Z,112480
2022-09-01T10:23:50.820Z,14236
2022-09-01T10:24:51.423Z,13608
2022-09-01T10:25:52.036Z,15104
2022-09-01T10:26:52.628Z,74176
2022-09-01T10:27:54.989Z,111264
2022-09-01T10:28:55.185Z,117120
2022-09-01T10:30:20.553Z,124832
2022-09-01T10:30:57.475Z,125184
2022-09-01T10:32:21.241Z,117024
2022-09-01T10:33:06.822Z,111712
2022-09-01T10:34:00.248Z,111424
2022-09-01T10:35:01.646Z,112960
2022-09-01T10:36:06.831Z,56480
2022-09-01T10:37:04.554Z,107488
2022-09-01T10:38:05.172Z,98976
2022-09-01T10:39:08.953Z,91584
2022-09-01T10:40:07.487Z,66752
2022-09-01T10:41:10.121Z,94336
2022-09-01T10:42:09.639Z,101344
2022-09-01T10:43:12.409Z,112800
2022-09-01T10:44:10.863Z,124288
2022-09-01T10:45:11.524Z,133344
2022-09-01T10:46:15.984Z,133216
2022-09-01T10:47:14.530Z,122304
2022-09-01T10:48:14.814Z,104672
2022-09-01T10:49:15.996Z,94304
2022-09-01T10:50:16.608Z,21120
2022-09-01T10:51:19.023Z,25152
2022-09-01T10:52:19.015Z,71936
2022-09-01T10:53:19.577Z,22240
2022-09-01T10:54:20.180Z,29600
2022-09-01T10:55:25.222Z,62496
2022-09-01T10:56:28.316Z,70912
2022-09-01T10:57:27.681Z,142912
2022-09-01T10:59:32.053Z,197312
2022-09-01T11:00:36.843Z,184256
2022-09-01T11:01:47.814Z,20928
2022-09-01T11:02:36.343Z,20672
2022-09-01T11:03:41.087Z,23520
2022-09-01T11:04:35.574Z,29632
2022-09-01T11:05:36.189Z,175200
2022-09-01T11:06:36.772Z,34016
2022-09-01T11:08:38.970Z,161216
2022-09-01T11:09:39.573Z,126176
2022-09-01T11:10:40.175Z,111264
2022-09-01T11:11:40.779Z,123008
2022-09-01T11:12:42.149Z,151744
2022-09-01T11:13:45.260Z,175712
2022-09-01T11:14:44.332Z,181728
2022-09-01T11:15:45.119Z,168608
2022-09-01T11:16:46.232Z,147904
2022-09-01T11:17:47.254Z,130208
2022-09-01T11:18:47.856Z,130880
2022-09-01T11:19:49.178Z,130912
2022-09-01T11:20:49.778Z,130368
2022-09-01T11:21:50.381Z,126528
2022-09-01T11:22:52.839Z,52384
2022-09-01T11:23:52.795Z,103232
2022-09-01T11:25:00.138Z,106176
2022-09-01T11:26:56.563Z,39648
2022-09-01T11:27:57.168Z,85376
2022-09-01T11:28:58.677Z,36128
2022-09-01T11:29:59.280Z,35744
2022-09-01T11:30:59.883Z,35520
2022-09-01T11:32:00.527Z,35904
2022-09-01T11:33:01.123Z,35904
2022-09-01T11:34:01.742Z,36064
2022-09-01T11:35:02.340Z,36512
2022-09-01T11:36:02.948Z,37760
2022-09-01T11:37:03.567Z,38368
2022-09-01T11:38:04.312Z,38848
2022-09-01T11:39:04.915Z,38848
2022-09-01T11:40:05.573Z,38976
2022-09-01T11:41:06.136Z,39072
2022-09-01T11:42:06.837Z,41984
2022-09-01T11:43:08.103Z,44384
2022-09-01T11:44:09.032Z,43584
2022-09-01T11:45:09.635Z,39136
2022-09-01T11:46:11.406Z,38176
2022-09-01T11:47:14.302Z,51648
2022-09-01T11:48:12.455Z,86944
2022-09-01T11:49:13.056Z,106560
2022-09-01T11:50:13.663Z,115296
2022-09-01T11:51:14.615Z,74208
2022-09-01T11:52:15.433Z,81088
2022-09-01T11:53:16.097Z,85408
2022-09-01T11:54:16.675Z,106496
2022-09-01T11:55:17.279Z,128544
2022-09-01T11:56:17.884Z,143264
2022-09-01T11:57:18.508Z,139456
2022-09-01T11:58:19.115Z,118720
2022-09-01T11:59:19.723Z,99232
2022-09-01T12:00:20.320Z,94240
2022-09-01T12:01:20.924Z,101440
2022-09-01T12:02:21.572Z,118432
2022-09-01T12:03:22.675Z,137088
2022-09-01T12:04:23.542Z,144576
2022-09-01T12:05:24.135Z,101280
2022-09-01T12:06:24.741Z,29984
2022-09-01T12:07:25.344Z,76832
2022-09-01T12:08:25.946Z,27328
2022-09-01T12:09:26.550Z,28160
2022-09-01T12:10:27.152Z,45376
2022-09-01T12:11:27.753Z,32384
2022-09-01T12:12:28.362Z,130944
2022-09-01T12:13:28.965Z,97760
2022-09-01T12:14:43.399Z,82368
2022-09-01T12:15:31.163Z,25408
2022-09-01T12:16:31.811Z,70304
2022-09-01T12:17:32.378Z,114304
2022-09-01T12:18:33.006Z,134720
2022-09-01T12:19:33.604Z,130464
2022-09-01T12:20:34.208Z,114208
2022-09-01T12:21:34.812Z,97952
2022-09-01T12:22:35.437Z,92992
2022-09-01T12:23:36.044Z,104320
2022-09-01T12:24:36.652Z,120736
2022-09-01T12:25:37.250Z,128448
2022-09-01T12:26:37.852Z,119584
2022-09-01T12:27:38.460Z,97824
2022-09-01T12:28:39.058Z,78944
2022-09-01T12:29:39.660Z,64000
2022-09-01T12:30:40.285Z,28992
2022-09-01T12:31:40.917Z,110304
2022-09-01T12:32:41.504Z,123488
2022-09-01T12:33:42.164Z,123424
2022-09-01T12:34:42.722Z,120064
2022-09-01T12:35:43.323Z,22944
2022-09-01T12:37:44.532Z,21280
2022-09-01T12:38:45.137Z,22656
2022-09-01T12:39:45.737Z,33824
2022-09-01T12:40:46.370Z,126624
2022-09-01T12:41:47.255Z,120640
2022-09-01T12:42:47.852Z,29216
2022-09-01T12:43:53.359Z,113088
2022-09-01T12:44:50.596Z,25536
2022-09-01T12:45:51.228Z,35808
2022-09-01T12:46:51.804Z,21792
2022-09-01T12:47:52.404Z,23328
2022-09-01T12:48:53.009Z,135008
2022-09-01T12:49:55.682Z,126176
2022-09-01T12:50:56.155Z,114304
2022-09-01T12:51:56.808Z,107232
2022-09-01T12:52:57.431Z,19652
2022-09-01T12:53:58.479Z,18360
2022-09-01T12:54:59.228Z,18544
2022-09-01T12:55:59.829Z,25696
2022-09-01T12:57:00.432Z,89536
2022-09-01T12:58:01.035Z,113376
2022-09-01T12:59:01.641Z,104576
2022-09-01T13:00:02.249Z,102176
2022-09-01T13:01:02.919Z,111936
2022-09-01T13:02:03.580Z,132128
2022-09-01T13:03:05.456Z,36128
2022-09-01T13:04:06.217Z,27552
2022-09-01T13:05:06.783Z,30816
2022-09-01T13:06:07.988Z,88896
2022-09-01T13:07:08.981Z,145184
2022-09-01T13:08:09.571Z,124608
2022-09-01T13:09:10.393Z,142816
2022-09-01T13:10:10.949Z,145600
2022-09-01T13:11:11.718Z,139200
2022-09-01T13:12:12.288Z,127424
2022-09-01T13:13:12.966Z,118944
2022-09-01T13:14:13.533Z,124384
2022-09-01T13:16:14.785Z,156576
2022-09-01T13:17:15.352Z,80736
2022-09-01T13:18:16.006Z,145888
2022-09-01T13:19:23.995Z,111776
2022-09-01T13:20:18.187Z,82848
2022-09-01T13:21:18.789Z,77440
2022-09-01T13:22:19.391Z,98944
2022-09-01T13:23:20.120Z,131424
2022-09-01T13:24:23.344Z,156416
2022-09-01T13:25:22.403Z,158592
2022-09-01T13:26:23.006Z,151328
2022-09-01T13:27:23.872Z,26912
2022-09-01T13:29:26.129Z,22400
2022-09-01T13:30:26.729Z,23904
2022-09-01T13:31:29.281Z,25216
2022-09-01T13:32:28.863Z,24448
2022-09-01T13:33:29.480Z,24384
2022-09-01T13:34:30.096Z,23904
2022-09-01T13:35:30.673Z,23104
2022-09-01T13:36:50.604Z,22784
2022-09-01T13:37:32.892Z,23296
2022-09-01T13:38:33.493Z,24064
2022-09-01T13:39:34.100Z,80608
2022-09-01T13:40:34.757Z,35168
2022-09-01T13:41:35.320Z,38432
2022-09-01T13:42:35.919Z,26272
2022-09-01T13:43:36.579Z,25152
2022-09-01T13:44:37.141Z,39488
2022-09-01T13:45:37.782Z,90048
2022-09-01T13:46:58.943Z,103424
2022-09-01T13:48:15.249Z,118048
2022-09-01T13:50:05.401Z,113440
2022-09-01T13:51:46.324Z,97792
2022-09-01T13:52:46.929Z,98560
2022-09-01T13:53:48.526Z,100224
2022-09-01T13:54:49.128Z,103360
2022-09-01T13:55:49.799Z,109056
2022-09-01T13:56:50.387Z,125344
2022-09-01T13:57:55.187Z,134816
2022-09-01T13:58:52.589Z,126624
2022-09-01T13:59:53.196Z,111328
2022-09-01T14:00:53.835Z,103584
2022-09-01T14:01:54.408Z,108960
2022-09-01T14:02:55.014Z,116672
2022-09-01T14:04:00.076Z,101792
2022-09-01T14:04:56.306Z,134560
2022-09-01T14:05:56.862Z,41216
2022-09-01T14:06:57.466Z,136928
2022-09-01T14:07:59.060Z,134464
2022-09-01T14:08:59.663Z,97856
2022-09-01T14:10:00.288Z,55200